createdAt,value
2018-10-07T00:00:03.630Z,69.03
2018-10-07T00:02:32.111Z,71.00
2018-10-07T00:05:00.629Z,71.10
2018-10-07T00:07:29.089Z,70.73
2018-10-07T00:09:57.628Z,72.37
2018-10-07T00:12:26.090Z,71.83
2018-10-07T00:14:54.563Z,72.80
2018-10-07T00:17:23.399Z,71.37
2018-10-07T00:19:51.939Z,72.93
2018-10-07T00:22:20.418Z,73.50
2018-10-07T00:24:48.927Z,74.47
2018-10-07T00:27:17.943Z,75.17
2018-10-07T00:29:46.446Z,71.23
2018-10-07T00:32:15.834Z,69.30
2018-10-07T00:34:45.695Z,73.63
2018-10-07T00:37:14.187Z,72.97
2018-10-07T00:39:43.136Z,68.83
2018-10-07T00:42:11.851Z,69.60
2018-10-07T00:44:40.319Z,66.90
2018-10-07T00:47:09.172Z,66.63
2018-10-07T00:49:37.712Z,70.00
2018-10-07T00:52:06.283Z,64.87
2018-10-07T00:54:34.772Z,66.13
2018-10-07T00:57:03.998Z,68.47
2018-10-07T00:59:32.473Z,68.07
2018-10-07T01:02:00.958Z,68.10
2018-10-07T01:04:29.425Z,67.20
2018-10-07T01:06:57.922Z,66.07
2018-10-07T01:09:26.406Z,68.27
2018-10-07T01:11:54.926Z,66.70
2018-10-07T01:14:23.416Z,64.77
2018-10-07T01:16:51.909Z,61.63
2018-10-07T01:19:20.403Z,60.97
2018-10-07T01:21:49.382Z,61.30
2018-10-07T01:24:18.042Z,61.80
2018-10-07T01:26:46.531Z,58.47
2018-10-07T01:29:15.367Z,60.53
2018-10-07T01:31:43.875Z,59.43
2018-10-07T01:34:12.438Z,59.57
2018-10-07T01:36:40.903Z,59.43
2018-10-07T01:39:10.599Z,54.50
2018-10-07T01:41:39.415Z,51.77
2018-10-07T01:44:07.963Z,53.90
2018-10-07T01:46:36.553Z,53.77
2018-10-07T01:49:05.071Z,49.53
2018-10-07T01:51:33.511Z,49.37
2018-10-07T01:54:02.039Z,46.47
2018-10-07T01:56:30.487Z,43.03
2018-10-07T01:58:58.959Z,40.37
2018-10-07T02:01:27.404Z,40.30
2018-10-07T02:03:55.868Z,38.20
2018-10-07T02:06:24.310Z,38.50
2018-10-07T02:08:52.771Z,34.20
2018-10-07T02:11:21.206Z,35.90
2018-10-07T02:13:49.675Z,35.40
2018-10-07T02:16:18.621Z,32.47
2018-10-07T02:18:47.248Z,31.13
2018-10-07T02:21:15.712Z,33.10
2018-10-07T02:23:44.162Z,31.67
2018-10-07T02:26:12.585Z,31.43
2018-10-07T02:28:41.037Z,26.37
2018-10-07T02:31:09.490Z,22.63
2018-10-07T02:33:37.922Z,21.30
2018-10-07T02:36:06.762Z,19.03
2018-10-07T02:38:35.218Z,16.70
2018-10-07T02:41:03.728Z,16.07
2018-10-07T02:43:32.179Z,15.77
2018-10-07T02:46:00.757Z,16.20
2018-10-07T02:48:29.194Z,13.80
2018-10-07T02:50:57.700Z,13.10
2018-10-07T02:53:26.138Z,13.80
2018-10-07T02:55:54.858Z,11.97
2018-10-07T02:58:23.990Z,12.17
2018-10-07T03:00:52.458Z,12.27
2018-10-07T03:03:20.902Z,12.63
2018-10-07T03:05:49.730Z,11.93
2018-10-07T03:08:18.186Z,11.90
2018-10-07T03:10:46.690Z,12.40
2018-10-07T03:13:15.119Z,10.93
2018-10-07T03:15:43.558Z,11.77
2018-10-07T03:18:12.002Z,10.73
2018-10-07T03:20:40.447Z,10.07
2018-10-07T03:23:09.250Z,9.83
2018-10-07T03:25:37.698Z,10.90
2018-10-07T03:28:06.126Z,9.30
2018-10-07T03:30:34.583Z,9.17
2018-10-07T03:33:03.034Z,8.63
2018-10-07T03:35:31.478Z,6.10
2018-10-07T03:37:59.951Z,6.70
2018-10-07T03:40:28.391Z,6.23
2018-10-07T03:42:56.854Z,6.10
2018-10-07T03:45:25.547Z,4.93
2018-10-07T03:47:54.000Z,5.13
2018-10-07T03:50:22.438Z,5.53
2018-10-07T03:52:50.887Z,4.97
2018-10-07T03:55:19.316Z,5.10
2018-10-07T03:57:47.778Z,4.90
2018-10-07T04:00:16.818Z,5.53
2018-10-07T04:02:45.284Z,5.30
2018-10-07T04:05:13.754Z,4.80
2018-10-07T04:07:42.616Z,4.90
2018-10-07T04:10:11.057Z,5.67
2018-10-07T04:12:39.518Z,4.63
2018-10-07T04:15:08.321Z,4.30
2018-10-07T04:17:36.772Z,4.67
2018-10-07T04:20:05.299Z,3.80
2018-10-07T04:22:33.745Z,4.53
2018-10-07T04:25:02.212Z,3.00
2018-10-07T04:27:30.700Z,3.70
2018-10-07T04:29:59.126Z,3.80
2018-10-07T04:32:27.599Z,2.97
2018-10-07T04:34:56.015Z,2.57
2018-10-07T04:37:24.496Z,3.10
2018-10-07T04:39:53.022Z,2.83
2018-10-07T04:42:21.630Z,2.40
2018-10-07T04:44:50.138Z,2.20
2018-10-07T04:47:19.015Z,2.43
2018-10-07T04:49:47.526Z,3.07
2018-10-07T04:52:15.973Z,2.37
2018-10-07T04:54:44.421Z,2.50
2018-10-07T04:57:12.865Z,2.40
2018-10-07T04:59:41.322Z,2.70
2018-10-07T05:02:09.748Z,2.47
2018-10-07T05:04:38.227Z,2.30
2018-10-07T05:07:06.763Z,2.73
2018-10-07T05:09:35.315Z,2.43
2018-10-07T05:12:05.703Z,2.60
2018-10-07T05:14:34.337Z,2.60
2018-10-07T05:17:03.456Z,2.17
2018-10-07T05:24:22.567Z,2.53
2018-10-07T05:26:51.043Z,2.10
2018-10-07T05:29:19.531Z,2.70
2018-10-07T05:31:47.984Z,2.33
2018-10-07T05:34:16.427Z,2.40
2018-10-07T05:36:44.918Z,2.67
2018-10-07T05:39:13.570Z,2.17
2018-10-07T05:41:42.043Z,2.00
2018-10-07T05:44:10.540Z,2.50
2018-10-07T05:46:39.167Z,2.03
2018-10-07T05:49:07.641Z,2.10
2018-10-07T05:51:36.104Z,1.90
2018-10-07T05:54:04.895Z,2.23
2018-10-07T05:56:33.335Z,2.10
2018-10-07T05:59:01.830Z,2.27
2018-10-07T06:01:41.435Z,2.23
2018-10-07T06:04:20.270Z,1.90
2018-10-07T06:06:48.855Z,1.53
2018-10-07T06:09:22.862Z,2.07
2018-10-07T06:11:51.439Z,1.70
2018-10-07T06:14:31.938Z,1.87
2018-10-07T06:17:01.058Z,1.67
2018-10-07T06:19:30.194Z,1.30
2018-10-07T06:21:58.666Z,1.50
2018-10-07T06:24:27.091Z,1.90
2018-10-07T06:26:56.326Z,1.67
2018-10-07T06:29:25.655Z,1.57
2018-10-07T06:31:54.736Z,1.50
2018-10-07T06:34:23.330Z,2.13
2018-10-07T06:36:51.999Z,1.83
2018-10-07T06:39:20.503Z,1.50
2018-10-07T06:41:49.371Z,1.50
2018-10-07T06:44:18.199Z,1.37
2018-10-07T06:46:47.067Z,1.87
2018-10-07T06:49:15.827Z,1.20
2018-10-07T06:51:44.975Z,1.33
2018-10-07T06:54:14.448Z,1.20
2018-10-07T06:56:43.354Z,1.53
2018-10-07T06:59:11.813Z,1.33
2018-10-07T07:01:40.592Z,1.53
2018-10-07T07:04:09.032Z,1.23
2018-10-07T07:06:37.605Z,1.27
2018-10-07T07:09:08.020Z,1.23
2018-10-07T07:11:36.568Z,1.33
2018-10-07T07:14:05.186Z,1.07
2018-10-07T07:16:33.851Z,1.23
2018-10-07T07:19:02.298Z,1.10
2018-10-07T07:21:30.754Z,1.37
2018-10-07T07:23:59.251Z,1.07
2018-10-07T07:26:28.060Z,0.80
2018-10-07T07:28:56.504Z,1.20
2018-10-07T07:31:25.024Z,1.30
2018-10-07T07:33:53.647Z,1.00
2018-10-07T07:36:22.090Z,1.20
2018-10-07T07:38:53.818Z,0.90
2018-10-07T07:41:22.242Z,1.20
2018-10-07T07:43:50.736Z,1.40
2018-10-07T07:46:19.176Z,1.10
2018-10-07T07:48:47.652Z,1.10
2018-10-07T07:51:16.112Z,1.03
2018-10-07T07:53:44.568Z,1.10
2018-10-07T07:56:13.010Z,1.17
2018-10-07T07:58:41.454Z,0.80
2018-10-07T08:01:09.933Z,1.27
2018-10-07T08:03:38.346Z,1.40
2018-10-07T08:06:07.459Z,1.10
2018-10-07T08:08:35.924Z,1.30
2018-10-07T08:11:04.404Z,0.90
2018-10-07T08:13:32.852Z,1.60
2018-10-07T08:16:01.304Z,1.10
2018-10-07T08:18:29.742Z,1.43
2018-10-07T08:20:58.186Z,1.30
2018-10-07T08:23:27.022Z,1.17
2018-10-07T08:25:55.616Z,1.20
2018-10-07T08:28:24.090Z,0.93
2018-10-07T08:30:52.554Z,1.10
2018-10-07T08:33:21.011Z,1.00
2018-10-07T08:35:49.479Z,1.13
2018-10-07T08:38:17.902Z,1.17
2018-10-07T08:40:46.359Z,1.30
2018-10-07T08:43:15.039Z,1.30
2018-10-07T08:45:44.139Z,1.47
2018-10-07T08:48:12.810Z,1.03
2018-10-07T08:50:41.306Z,1.23
2018-10-07T08:53:10.108Z,1.23
2018-10-07T08:55:38.543Z,0.83
2018-10-07T08:58:07.020Z,1.43
2018-10-07T09:00:35.467Z,1.23
2018-10-07T09:03:04.855Z,1.20
2018-10-07T09:05:33.293Z,1.10
2018-10-07T09:08:01.763Z,1.20
2018-10-07T09:10:30.196Z,1.37
2018-10-07T09:12:58.641Z,1.20
2018-10-07T09:15:27.094Z,1.30
2018-10-07T09:17:55.551Z,1.43
2018-10-07T09:20:23.990Z,1.07
2018-10-07T09:22:52.655Z,1.50
2018-10-07T09:25:21.123Z,1.13
2018-10-07T09:27:50.667Z,1.30
2018-10-07T09:30:19.128Z,1.43
2018-10-07T09:32:47.666Z,2.10
2018-10-07T09:35:16.220Z,1.10
2018-10-07T09:37:44.681Z,1.77
2018-10-07T09:40:13.124Z,1.13
2018-10-07T09:42:41.587Z,1.20
2018-10-07T09:45:10.500Z,1.50
2018-10-07T09:47:39.129Z,1.17
2018-10-07T09:50:07.921Z,1.20
2018-10-07T09:52:36.348Z,1.37
2018-10-07T09:55:05.295Z,1.43
2018-10-07T09:57:33.750Z,1.43
2018-10-07T10:00:02.223Z,1.50
2018-10-07T10:02:30.652Z,1.57
2018-10-07T10:04:59.122Z,1.37
2018-10-07T10:07:27.567Z,1.90
2018-10-07T10:09:56.011Z,1.50
2018-10-07T10:12:24.556Z,1.67
2018-10-07T10:14:53.025Z,1.53
2018-10-07T10:17:23.549Z,1.20
2018-10-07T10:19:58.049Z,1.40
2018-10-07T10:24:39.470Z,1.40
2018-10-07T10:27:12.887Z,1.70
2018-10-07T10:29:47.266Z,1.50
2018-10-07T10:32:18.039Z,1.30
2018-10-07T10:34:57.542Z,1.23
2018-10-07T10:38:07.046Z,1.40
2018-10-07T10:40:46.198Z,1.60
2018-10-07T10:43:22.420Z,1.40
2018-10-07T10:46:10.339Z,1.43
2018-10-07T10:48:49.476Z,1.43
2018-10-07T10:51:37.576Z,1.13
2018-10-07T10:54:15.966Z,1.33
2018-10-07T10:56:54.379Z,1.53
2018-10-07T11:00:01.231Z,1.60
2018-10-07T11:03:39.887Z,1.93
2018-10-07T11:06:19.499Z,1.50
2018-10-07T11:08:59.604Z,1.60
2018-10-07T11:11:38.981Z,1.60
2018-10-07T11:14:25.906Z,1.77
2018-10-07T11:17:04.382Z,1.43
2018-10-07T11:19:41.375Z,1.67
2018-10-07T11:24:25.798Z,1.37
2018-10-07T11:27:05.355Z,1.40
2018-10-07T11:29:41.692Z,1.63
2018-10-07T11:32:49.131Z,1.47
2018-10-07T11:37:29.572Z,1.50
2018-10-07T11:42:07.443Z,1.37
2018-10-07T11:44:51.326Z,1.60
2018-10-07T11:47:26.377Z,1.60
2018-10-07T11:52:06.871Z,1.77
2018-10-07T11:55:05.334Z,1.87
2018-10-07T11:57:33.821Z,2.00
2018-10-07T12:00:02.452Z,1.73
2018-10-07T12:02:30.970Z,1.90
2018-10-07T12:04:59.631Z,1.57
2018-10-07T12:07:29.774Z,1.80
2018-10-07T12:09:58.200Z,1.77
2018-10-07T12:12:26.657Z,1.60
2018-10-07T12:14:55.096Z,1.83
2018-10-07T12:17:23.555Z,1.37
2018-10-07T12:19:51.981Z,1.63
2018-10-07T12:22:20.810Z,1.67
2018-10-07T12:24:49.223Z,1.80
2018-10-07T12:27:18.022Z,1.70
2018-10-07T12:29:47.234Z,1.60
2018-10-07T12:32:16.053Z,1.67
2018-10-07T12:34:44.483Z,1.83
2018-10-07T12:37:12.938Z,2.13
2018-10-07T12:39:41.431Z,1.60
2018-10-07T12:42:09.867Z,1.87
2018-10-07T12:44:38.353Z,2.20
2018-10-07T12:47:07.567Z,1.97
2018-10-07T12:49:36.045Z,1.60
2018-10-07T12:52:05.526Z,1.50
2018-10-07T12:54:34.091Z,1.80
2018-10-07T12:57:02.683Z,1.93
2018-10-07T12:59:31.134Z,1.70
2018-10-07T13:01:59.578Z,1.80
2018-10-07T13:04:28.026Z,1.60
2018-10-07T13:06:56.484Z,1.70
2018-10-07T13:09:25.019Z,3.03
2018-10-07T13:11:53.602Z,1.83
2018-10-07T13:14:22.079Z,1.70
2018-10-07T13:16:50.495Z,2.13
2018-10-07T13:19:18.993Z,1.80
2018-10-07T13:21:47.584Z,1.93
2018-10-07T13:24:16.050Z,2.00
2018-10-07T13:26:44.526Z,1.73
2018-10-07T13:29:12.989Z,1.63
2018-10-07T13:31:41.418Z,2.30
2018-10-07T13:34:09.849Z,1.70
2018-10-07T13:36:38.330Z,1.80
2018-10-07T13:39:10.852Z,1.93
2018-10-07T13:41:39.548Z,1.87
2018-10-07T13:44:08.347Z,1.70
2018-10-07T13:46:36.787Z,1.90
2018-10-07T13:49:05.256Z,2.00
2018-10-07T13:51:34.204Z,1.80
2018-10-07T13:54:02.755Z,2.20
2018-10-07T13:58:00.410Z,1.67
2018-10-07T14:00:29.170Z,1.93
2018-10-07T14:02:57.603Z,1.80
2018-10-07T14:05:26.163Z,2.00
2018-10-07T14:07:54.583Z,2.00
2018-10-07T14:10:23.098Z,2.17
2018-10-07T14:12:51.547Z,1.90
2018-10-07T14:15:19.983Z,2.57
2018-10-07T14:17:48.433Z,2.40
2018-10-07T14:20:16.887Z,2.60
2018-10-07T14:22:45.370Z,2.10
2018-10-07T14:25:13.794Z,1.90
2018-10-07T14:27:42.246Z,1.60
2018-10-07T14:30:10.754Z,1.77
2018-10-07T14:32:39.235Z,1.70
2018-10-07T14:35:07.682Z,1.60
2018-10-07T14:37:36.151Z,1.70
2018-10-07T14:40:04.757Z,1.97
2018-10-07T14:42:33.203Z,1.77
2018-10-07T14:45:01.648Z,1.90
2018-10-07T14:47:30.111Z,2.00
2018-10-07T14:49:58.547Z,1.97
2018-10-07T14:52:27.023Z,2.37
2018-10-07T14:54:55.527Z,2.07
2018-10-07T14:57:24.175Z,2.00
2018-10-07T14:59:52.615Z,2.20
2018-10-07T15:02:21.069Z,2.20
2018-10-07T15:04:49.508Z,1.53
2018-10-07T15:07:21.293Z,2.07
2018-10-07T15:09:49.736Z,1.73
2018-10-07T15:12:18.870Z,1.60
2018-10-07T15:14:47.378Z,2.10
2018-10-07T15:17:15.844Z,1.43
2018-10-07T15:19:44.340Z,1.97
2018-10-07T15:22:12.775Z,1.90
2018-10-07T15:24:41.267Z,1.40
2018-10-07T15:27:09.731Z,1.70
2018-10-07T15:29:38.250Z,1.90
2018-10-07T15:32:06.835Z,1.50
2018-10-07T15:34:35.387Z,1.93
2018-10-07T15:37:03.884Z,1.80
2018-10-07T15:39:32.604Z,1.83
2018-10-07T15:42:01.036Z,1.80
2018-10-07T15:44:29.490Z,1.70
2018-10-07T15:46:57.973Z,1.70
2018-10-07T15:49:26.475Z,1.70
2018-10-07T15:51:54.935Z,1.80
2018-10-07T15:54:23.429Z,1.80
2018-10-07T15:56:51.946Z,2.10
2018-10-07T15:59:20.515Z,1.87
2018-10-07T16:01:48.962Z,1.73
2018-10-07T16:04:17.427Z,2.23
2018-10-07T16:06:45.936Z,2.10
2018-10-07T16:09:14.404Z,1.93
2018-10-07T16:11:42.861Z,1.90
2018-10-07T16:14:11.284Z,2.43
2018-10-07T16:16:39.775Z,2.13
2018-10-07T16:19:08.210Z,3.10
2018-10-07T16:21:37.117Z,4.40
2018-10-07T16:24:05.589Z,2.47
2018-10-07T16:26:34.128Z,2.43
2018-10-07T16:29:02.722Z,2.10
2018-10-07T16:31:31.199Z,2.00
2018-10-07T16:33:59.629Z,2.77
2018-10-07T16:36:28.095Z,1.93
2018-10-07T16:38:56.535Z,1.73
2018-10-07T16:41:25.003Z,2.20
2018-10-07T16:43:53.455Z,1.80
2018-10-07T16:46:21.943Z,2.43
2018-10-07T16:48:50.369Z,2.40
2018-10-07T16:51:19.726Z,2.40
2018-10-07T16:53:48.158Z,2.90
2018-10-07T16:56:16.637Z,6.00
2018-10-07T16:58:45.083Z,8.40
2018-10-07T17:01:13.902Z,9.37
2018-10-07T17:03:42.351Z,12.53
2018-10-07T17:06:11.134Z,19.47
2018-10-07T17:08:39.620Z,16.97
2018-10-07T17:11:08.091Z,52.13
2018-10-07T17:13:36.560Z,60.70
2018-10-07T17:16:05.619Z,43.10
2018-10-07T17:18:34.127Z,16.07
2018-10-07T17:21:02.602Z,18.73
2018-10-07T17:23:31.246Z,18.93
2018-10-07T17:26:00.051Z,7.20
2018-10-07T17:28:28.487Z,5.33
2018-10-07T17:30:56.926Z,3.47
2018-10-07T17:33:25.394Z,3.80
2018-10-07T17:35:53.831Z,3.50
2018-10-07T17:38:22.311Z,3.20
2018-10-07T17:40:50.752Z,3.50
2018-10-07T17:43:19.417Z,3.27
2018-10-07T17:45:47.846Z,3.33
2018-10-07T17:48:16.328Z,3.07
2018-10-07T17:50:44.918Z,2.90
2018-10-07T17:53:13.376Z,3.30
2018-10-07T17:55:41.846Z,3.60
2018-10-07T17:58:10.785Z,2.83
2018-10-07T18:00:39.261Z,3.27
2018-10-07T18:03:07.747Z,2.80
2018-10-07T18:05:36.403Z,3.07
2018-10-07T18:08:05.255Z,2.97
2018-10-07T18:10:33.719Z,3.60
2018-10-07T18:13:02.797Z,3.17
2018-10-07T18:15:31.963Z,3.43
2018-10-07T18:19:24.838Z,3.40
2018-10-07T18:21:53.327Z,3.50
2018-10-07T18:24:22.663Z,3.23
2018-10-07T18:26:51.121Z,3.47
2018-10-07T18:29:19.550Z,3.30
2018-10-07T18:31:48.030Z,3.20
2018-10-07T18:34:16.553Z,2.90
2018-10-07T18:36:45.142Z,3.27
2018-10-07T18:39:13.632Z,3.57
2018-10-07T18:41:42.099Z,3.70
2018-10-07T18:44:10.559Z,4.33
2018-10-07T18:46:39.025Z,3.17
2018-10-07T18:49:09.718Z,3.27
2018-10-07T18:51:38.278Z,3.77
2018-10-07T18:54:06.767Z,3.37
2018-10-07T18:56:35.229Z,3.37
2018-10-07T18:59:03.696Z,3.17
2018-10-07T19:01:32.158Z,3.80
2018-10-07T19:04:00.574Z,4.33
2018-10-07T19:06:29.393Z,5.07
2018-10-07T19:08:57.838Z,5.23
2018-10-07T19:11:26.308Z,4.97
2018-10-07T19:13:54.760Z,4.23
2018-10-07T19:16:23.375Z,4.07
2018-10-07T19:18:51.803Z,4.17
2018-10-07T19:21:20.281Z,4.37
2018-10-07T19:23:48.927Z,4.03
2018-10-07T19:26:17.390Z,4.67
2018-10-07T19:28:45.860Z,4.27
2018-10-07T19:31:14.296Z,5.03
2018-10-07T19:33:42.766Z,5.70
2018-10-07T19:36:11.174Z,5.43
2018-10-07T19:38:39.611Z,6.33
2018-10-07T19:41:08.067Z,6.40
2018-10-07T19:43:36.687Z,5.47
2018-10-07T19:46:05.247Z,6.67
2018-10-07T19:48:33.706Z,8.00
2018-10-07T19:51:02.515Z,8.73
2018-10-07T19:53:30.962Z,8.07
2018-10-07T19:55:59.571Z,5.33
2018-10-07T19:58:28.026Z,5.10
2018-10-07T20:00:56.530Z,5.13
2018-10-07T20:03:25.052Z,4.93
2018-10-07T20:05:53.482Z,4.73
2018-10-07T20:08:21.983Z,4.67
2018-10-07T20:10:50.623Z,4.47
2018-10-07T20:13:19.099Z,4.93
2018-10-07T20:15:47.683Z,4.90
2018-10-07T20:18:16.170Z,5.87
2018-10-07T20:20:44.778Z,5.67
2018-10-07T20:23:13.217Z,4.90
2018-10-07T20:25:41.730Z,4.30
2018-10-07T20:28:10.357Z,4.27
2018-10-07T20:30:38.826Z,5.17
2018-10-07T20:33:07.271Z,7.13
2018-10-07T20:35:35.718Z,5.53
2018-10-07T20:38:04.162Z,5.70
2018-10-07T20:40:32.761Z,5.03
2018-10-07T20:43:01.260Z,6.00
2018-10-07T20:45:29.729Z,5.07
2018-10-07T20:47:58.167Z,5.83
2018-10-07T20:50:27.199Z,4.93
2018-10-07T20:52:55.668Z,4.97
2018-10-07T20:55:24.110Z,5.37
2018-10-07T20:57:52.565Z,5.17
2018-10-07T21:00:21.011Z,5.43
2018-10-07T21:02:49.574Z,5.40
2018-10-07T21:05:18.483Z,5.93
2018-10-07T21:07:46.971Z,6.23
2018-10-07T21:10:15.427Z,7.43
2018-10-07T21:12:44.891Z,7.47
2018-10-07T21:15:13.371Z,8.70
2018-10-07T21:17:41.835Z,8.30
2018-10-07T21:20:10.303Z,7.47
2018-10-07T21:22:38.801Z,7.67
2018-10-07T21:25:07.239Z,6.80
2018-10-07T21:27:35.716Z,6.50
2018-10-07T21:30:04.668Z,6.63
2018-10-07T21:32:33.126Z,6.60
2018-10-07T21:35:01.594Z,6.70
2018-10-07T21:37:30.115Z,5.17
2018-10-07T21:39:58.701Z,5.70
2018-10-07T21:42:27.199Z,5.33
2018-10-07T21:44:55.652Z,5.37
2018-10-07T21:47:24.091Z,5.60
2018-10-07T21:49:52.502Z,5.60
2018-10-07T21:52:20.991Z,6.00
2018-10-07T21:54:49.567Z,5.60
2018-10-07T21:57:18.035Z,5.40
2018-10-07T21:59:46.471Z,6.27
2018-10-07T22:02:14.903Z,5.80
2018-10-07T22:04:43.334Z,6.20
2018-10-07T22:07:12.127Z,6.40
2018-10-07T22:09:40.577Z,5.33
2018-10-07T22:12:09.027Z,6.57
2018-10-07T22:14:37.467Z,6.83
2018-10-07T22:17:06.542Z,5.40
2018-10-07T22:19:34.983Z,5.73
2018-10-07T22:22:03.434Z,5.57
2018-10-07T22:24:31.894Z,5.83
2018-10-07T22:27:00.339Z,6.03
2018-10-07T22:29:28.775Z,5.73
2018-10-07T22:31:57.222Z,5.47
2018-10-07T22:34:25.684Z,6.00
2018-10-07T22:36:54.303Z,5.60
2018-10-07T22:39:23.098Z,5.60
2018-10-07T22:41:51.515Z,5.67
2018-10-07T22:44:19.987Z,5.33
2018-10-07T22:46:48.429Z,5.80
2018-10-07T22:49:16.862Z,5.77
2018-10-07T22:51:45.303Z,5.93
2018-10-07T22:54:13.739Z,5.97
2018-10-07T22:56:42.191Z,5.60
2018-10-07T22:59:10.646Z,6.20
2018-10-07T23:01:39.062Z,6.77
2018-10-07T23:04:07.519Z,6.33
2018-10-07T23:06:35.959Z,6.60
2018-10-07T23:09:07.395Z,7.47
2018-10-07T23:11:35.842Z,8.43
2018-10-07T23:14:04.280Z,7.17
2018-10-07T23:16:32.761Z,6.80
2018-10-07T23:19:01.219Z,7.40
2018-10-07T23:21:29.698Z,7.60
2018-10-07T23:23:58.154Z,7.30
2018-10-07T23:26:26.642Z,7.30
2018-10-07T23:28:55.106Z,7.23
2018-10-07T23:31:23.627Z,7.20
2018-10-07T23:33:52.090Z,7.23
2018-10-07T23:36:20.586Z,6.93
2018-10-07T23:38:49.050Z,7.13
2018-10-07T23:41:17.581Z,6.63
2018-10-07T23:43:46.345Z,7.70
2018-10-07T23:46:15.000Z,6.70
2018-10-07T23:48:43.451Z,7.33
2018-10-07T23:51:11.942Z,7.03
2018-10-07T23:53:40.409Z,7.73
2018-10-07T23:56:08.879Z,6.53
2018-10-07T23:58:37.331Z,7.20
